sensor_id;sensor_type;location;lat;lon;timestamp;pressure;altitude;pressure_sealevel;temperature;humidity
39435;BME280;66825;51.880;-0.518;2023-04-08T00:00:55;101413.88;;;17.36;40.06
39435;BME280;66825;51.880;-0.518;2023-04-08T00:03:21;101386.13;;;17.19;40.06
39435;BME280;66825;51.880;-0.518;2023-04-08T00:05:46;101424.22;;;17.34;40.28
39435;BME280;66825;51.880;-0.518;2023-04-08T00:08:11;101430.50;;;17.40;40.12
39435;BME280;66825;51.880;-0.518;2023-04-08T00:10:37;101399.44;;;17.20;39.86
39435;BME280;66825;51.880;-0.518;2023-04-08T00:13:03;101413.34;;;17.29;40.04
39435;BME280;66825;51.880;-0.518;2023-04-08T00:15:29;101419.03;;;17.38;40.10
39435;BME280;66825;51.880;-0.518;2023-04-08T00:17:54;101429.09;;;17.37;40.07
39435;BME280;66825;51.880;-0.518;2023-04-08T00:20:22;101421.50;;;17.34;40.14
39435;BME280;66825;51.880;-0.518;2023-04-08T00:22:48;101416.84;;;17.35;40.16
39435;BME280;66825;51.880;-0.518;2023-04-08T00:25:13;101427.75;;;17.35;40.11
39435;BME280;66825;51.880;-0.518;2023-04-08T00:27:39;101419.88;;;17.28;40.09
39435;BME280;66825;51.880;-0.518;2023-04-08T00:30:05;101433.47;;;17.33;40.10
39435;BME280;66825;51.880;-0.518;2023-04-08T00:32:30;101415.22;;;17.28;40.04
39435;BME280;66825;51.880;-0.518;2023-04-08T00:34:57;101420.16;;;17.32;39.97
39435;BME280;66825;51.880;-0.518;2023-04-08T00:37:22;101417.69;;;17.30;40.24
39435;BME280;66825;51.880;-0.518;2023-04-08T00:39:49;101425.84;;;17.30;40.14
39435;BME280;66825;51.880;-0.518;2023-04-08T00:42:16;101420.69;;;17.28;40.27
39435;BME280;66825;51.880;-0.518;2023-04-08T00:44:41;101402.19;;;17.15;40.03
39435;BME280;66825;51.880;-0.518;2023-04-08T00:47:11;101405.72;;;17.21;39.87
39435;BME280;66825;51.880;-0.518;2023-04-08T00:49:36;101423.13;;;17.25;40.22
39435;BME280;66825;51.880;-0.518;2023-04-08T00:52:02;101422.84;;;17.26;39.86
39435;BME280;66825;51.880;-0.518;2023-04-08T00:54:27;101423.97;;;17.25;40.05
39435;BME280;66825;51.880;-0.518;2023-04-08T00:56:53;101419.59;;;17.24;40.00
39435;BME280;66825;51.880;-0.518;2023-04-08T00:59:18;101422.34;;;17.24;40.04
39435;BME280;66825;51.880;-0.518;2023-04-08T01:04:41;101413.63;;;17.22;40.26
39435;BME280;66825;51.880;-0.518;2023-04-08T01:07:22;101420.97;;;17.22;40.04
39435;BME280;66825;51.880;-0.518;2023-04-08T01:10:04;101419.34;;;17.21;40.04
39435;BME280;66825;51.880;-0.518;2023-04-08T01:12:32;101406.00;;;17.14;40.23
39435;BME280;66825;51.880;-0.518;2023-04-08T01:15:05;101417.69;;;17.20;40.23
39435;BME280;66825;51.880;-0.518;2023-04-08T01:17:32;101412.53;;;17.18;40.21
39435;BME280;66825;51.880;-0.518;2023-04-08T01:19:59;101409.81;;;17.18;40.18
39435;BME280;66825;51.880;-0.518;2023-04-08T01:25:18;101413.06;;;17.15;40.16
39435;BME280;66825;51.880;-0.518;2023-04-08T01:27:47;101417.69;;;17.14;40.32
39435;BME280;66825;51.880;-0.518;2023-04-08T01:30:13;101419.59;;;17.14;40.17
39435;BME280;66825;51.880;-0.518;2023-04-08T01:32:40;101417.16;;;17.12;40.21
39435;BME280;66825;51.880;-0.518;2023-04-08T01:35:08;101417.97;;;17.13;40.10
39435;BME280;66825;51.880;-0.518;2023-04-08T01:37:34;101417.16;;;17.12;40.19
39435;BME280;66825;51.880;-0.518;2023-04-08T01:40:01;101418.25;;;17.11;40.14
39435;BME280;66825;51.880;-0.518;2023-04-08T01:42:28;101407.66;;;17.10;40.06
39435;BME280;66825;51.880;-0.518;2023-04-08T01:44:56;101418.53;;;17.10;40.24
39435;BME280;66825;51.880;-0.518;2023-04-08T01:47:22;101411.69;;;17.07;40.04
39435;BME280;66825;51.880;-0.518;2023-04-08T01:49:50;101416.91;;;17.09;39.81
39435;BME280;66825;51.880;-0.518;2023-04-08T01:52:17;101362.16;;;16.74;39.89
39435;BME280;66825;51.880;-0.518;2023-04-08T01:54:44;101433.22;;;17.09;40.11
39435;BME280;66825;51.880;-0.518;2023-04-08T01:57:13;101423.44;;;17.08;40.16
39435;BME280;66825;51.880;-0.518;2023-04-08T01:59:41;101423.72;;;17.06;39.97
39435;BME280;66825;51.880;-0.518;2023-04-08T02:02:08;101434.59;;;17.06;40.17
39435;BME280;66825;51.880;-0.518;2023-04-08T02:04:35;101417.44;;;17.06;40.05
39435;BME280;66825;51.880;-0.518;2023-04-08T02:07:01;101422.06;;;17.05;39.75
39435;BME280;66825;51.880;-0.518;2023-04-08T02:09:27;101396.19;;;16.87;39.96
39435;BME280;66825;51.880;-0.518;2023-04-08T02:11:52;101425.88;;;17.04;40.06
39435;BME280;66825;51.880;-0.518;2023-04-08T02:14:18;101327.06;;;16.42;40.18
39435;BME280;66825;51.880;-0.518;2023-04-08T02:16:53;101416.59;;;17.00;39.69
39435;BME280;66825;51.880;-0.518;2023-04-08T02:19:28;101421.50;;;17.03;40.19
39435;BME280;66825;51.880;-0.518;2023-04-08T02:21:58;101421.81;;;17.02;40.19
39435;BME280;66825;51.880;-0.518;2023-04-08T02:24:26;101400.00;;;16.86;40.06
39435;BME280;66825;51.880;-0.518;2023-04-08T02:26:55;101416.59;;;17.00;40.08
39435;BME280;66825;51.880;-0.518;2023-04-08T02:29:21;101410.88;;;16.91;39.85
39435;BME280;66825;51.880;-0.518;2023-04-08T02:31:48;101423.16;;;16.99;39.80
39435;BME280;66825;51.880;-0.518;2023-04-08T02:34:16;101427.78;;;16.98;39.84
39435;BME280;66825;51.880;-0.518;2023-04-08T02:36:42;101426.97;;;16.98;39.83
39435;BME280;66825;51.880;-0.518;2023-04-08T02:39:10;101425.34;;;16.97;39.96
39435;BME280;66825;51.880;-0.518;2023-04-08T02:41:35;101423.69;;;16.96;39.92
39435;BME280;66825;51.880;-0.518;2023-04-08T02:44:01;101428.34;;;16.95;39.78
39435;BME280;66825;51.880;-0.518;2023-04-08T02:46:26;101365.16;;;16.52;39.74
39435;BME280;66825;51.880;-0.518;2023-04-08T02:48:52;101413.59;;;16.86;40.15
39435;BME280;66825;51.880;-0.518;2023-04-08T02:51:17;101425.88;;;16.94;39.86
39435;BME280;66825;51.880;-0.518;2023-04-08T02:53:43;101435.13;;;16.93;40.13
39435;BME280;66825;51.880;-0.518;2023-04-08T02:56:11;101441.09;;;16.90;39.87
39435;BME280;66825;51.880;-0.518;2023-04-08T02:58:37;101446.00;;;16.93;40.18
39435;BME280;66825;51.880;-0.518;2023-04-08T03:01:02;101433.19;;;16.83;40.12
39435;BME280;66825;51.880;-0.518;2023-04-08T03:03:28;101448.97;;;16.91;39.79
39435;BME280;66825;51.880;-0.518;2023-04-08T03:05:55;101439.19;;;16.85;39.91
39435;BME280;66825;51.880;-0.518;2023-04-08T03:08:21;101432.66;;;16.81;40.05
39435;BME280;66825;51.880;-0.518;2023-04-08T03:10:47;101457.41;;;16.90;40.21
39435;BME280;66825;51.880;-0.518;2023-04-08T03:13:14;101445.97;;;16.88;39.87
39435;BME280;66825;51.880;-0.518;2023-04-08T03:15:39;101454.16;;;16.88;39.74
39435;BME280;66825;51.880;-0.518;2023-04-08T03:18:05;101442.97;;;16.84;39.79
39435;BME280;66825;51.880;-0.518;2023-04-08T03:20:31;101459.59;;;16.88;40.14
39435;BME280;66825;51.880;-0.518;2023-04-08T03:22:56;101457.94;;;16.87;39.84
39435;BME280;66825;51.880;-0.518;2023-04-08T03:25:21;101461.75;;;16.86;39.80
39435;BME280;66825;51.880;-0.518;2023-04-08T03:27:47;101467.19;;;16.86;39.91
39435;BME280;66825;51.880;-0.518;2023-04-08T03:30:12;101464.75;;;16.84;40.12
39435;BME280;66825;51.880;-0.518;2023-04-08T03:32:38;101386.59;;;16.33;40.12
39435;BME280;66825;51.880;-0.518;2023-04-08T03:35:04;101474.00;;;16.83;40.01
39435;BME280;66825;51.880;-0.518;2023-04-08T03:37:30;101474.00;;;16.83;40.11
39435;BME280;66825;51.880;-0.518;2023-04-08T03:39:56;101476.19;;;16.81;40.12
39435;BME280;66825;51.880;-0.518;2023-04-08T03:42:21;101456.56;;;16.68;39.93
39435;BME280;66825;51.880;-0.518;2023-04-08T03:44:47;101473.47;;;16.81;39.85
39435;BME280;66825;51.880;-0.518;2023-04-08T03:47:12;101479.16;;;16.79;39.81
39435;BME280;66825;51.880;-0.518;2023-04-08T03:49:38;101467.75;;;16.77;39.83
39435;BME280;66825;51.880;-0.518;2023-04-08T03:52:03;101476.44;;;16.79;39.98
39435;BME280;66825;51.880;-0.518;2023-04-08T03:54:29;101472.91;;;16.79;40.13
39435;BME280;66825;51.880;-0.518;2023-04-08T03:56:54;101474.00;;;16.78;40.03
39435;BME280;66825;51.880;-0.518;2023-04-08T03:59:20;101480.25;;;16.78;39.92
39435;BME280;66825;51.880;-0.518;2023-04-08T04:01:46;101490.34;;;16.78;39.79
39435;BME280;66825;51.880;-0.518;2023-04-08T04:04:12;101463.91;;;16.63;40.01
39435;BME280;66825;51.880;-0.518;2023-04-08T04:06:38;101485.16;;;16.76;39.99
39435;BME280;66825;51.880;-0.518;2023-04-08T04:09:03;101489.25;;;16.74;39.86
39435;BME280;66825;51.880;-0.518;2023-04-08T04:11:29;101481.88;;;16.74;40.18
39435;BME280;66825;51.880;-0.518;2023-04-08T04:13:54;101467.16;;;16.65;39.83
39435;BME280;66825;51.880;-0.518;2023-04-08T04:16:20;101485.69;;;16.73;40.04
39435;BME280;66825;51.880;-0.518;2023-04-08T04:18:45;101491.13;;;16.73;40.04
39435;BME280;66825;51.880;-0.518;2023-04-08T04:21:10;101489.50;;;16.72;39.93
39435;BME280;66825;51.880;-0.518;2023-04-08T04:23:36;101488.69;;;16.72;40.11
39435;BME280;66825;51.880;-0.518;2023-04-08T04:26:07;101482.41;;;16.71;39.95
39435;BME280;66825;51.880;-0.518;2023-04-08T04:28:32;101492.78;;;16.69;40.05
39435;BME280;66825;51.880;-0.518;2023-04-08T04:30:57;101494.41;;;16.70;39.95
39435;BME280;66825;51.880;-0.518;2023-04-08T04:33:23;101486.78;;;16.67;39.79
39435;BME280;66825;51.880;-0.518;2023-04-08T04:35:48;101491.13;;;16.68;40.09
39435;BME280;66825;51.880;-0.518;2023-04-08T04:38:14;101503.66;;;16.69;40.06
39435;BME280;66825;51.880;-0.518;2023-04-08T04:40:40;101500.38;;;16.67;39.80
39435;BME280;66825;51.880;-0.518;2023-04-08T04:43:05;101500.66;;;16.65;39.96
39435;BME280;66825;51.880;-0.518;2023-04-08T04:45:31;101508.81;;;16.65;39.82
39435;BME280;66825;51.880;-0.518;2023-04-08T04:47:56;101501.97;;;16.58;39.89
39435;BME280;66825;51.880;-0.518;2023-04-08T04:50:22;101495.72;;;16.52;39.88
39435;BME280;66825;51.880;-0.518;2023-04-08T04:52:47;101515.63;;;16.63;39.85
39435;BME280;66825;51.880;-0.518;2023-04-08T04:55:13;101521.06;;;16.63;40.07
39435;BME280;66825;51.880;-0.518;2023-04-08T04:57:40;101521.84;;;16.63;39.88
39435;BME280;66825;51.880;-0.518;2023-04-08T05:00:06;101523.78;;;16.63;39.95
39435;BME280;66825;51.880;-0.518;2023-04-08T05:02:32;101515.88;;;16.61;39.79
39435;BME280;66825;51.880;-0.518;2023-04-08T05:04:58;101521.31;;;16.61;39.96
39435;BME280;66825;51.880;-0.518;2023-04-08T05:07:23;101531.38;;;16.61;39.75
39435;BME280;66825;51.880;-0.518;2023-04-08T05:09:49;101523.22;;;16.61;39.79
39435;BME280;66825;51.880;-0.518;2023-04-08T05:12:15;101427.28;;;15.97;39.78
39435;BME280;66825;51.880;-0.518;2023-04-08T05:14:40;101519.38;;;16.57;39.78
39435;BME280;66825;51.880;-0.518;2023-04-08T05:17:06;101504.13;;;16.45;40.02
39435;BME280;66825;51.880;-0.518;2023-04-08T05:19:32;101524.56;;;16.58;39.82
39435;BME280;66825;51.880;-0.518;2023-04-08T05:21:57;101523.75;;;16.58;39.85
39435;BME280;66825;51.880;-0.518;2023-04-08T05:24:22;101514.44;;;16.48;39.80
39435;BME280;66825;51.880;-0.518;2023-04-08T05:26:48;101443.03;;;16.00;39.83
39435;BME280;66825;51.880;-0.518;2023-04-08T05:29:17;101534.34;;;16.54;39.78
39435;BME280;66825;51.880;-0.518;2023-04-08T05:31:43;101545.22;;;16.54;39.98
39435;BME280;66825;51.880;-0.518;2023-04-08T05:34:09;101537.91;;;16.55;40.00
39435;BME280;66825;51.880;-0.518;2023-04-08T05:36:35;101549.84;;;16.54;39.63
39435;BME280;66825;51.880;-0.518;2023-04-08T05:39:01;101545.50;;;16.52;39.77
39435;BME280;66825;51.880;-0.518;2023-04-08T05:41:26;101557.19;;;16.53;39.80
39435;BME280;66825;51.880;-0.518;2023-04-08T05:43:52;101553.66;;;16.52;39.62
39435;BME280;66825;51.880;-0.518;2023-04-08T05:46:17;101561.00;;;16.52;39.78
39435;BME280;66825;51.880;-0.518;2023-04-08T05:48:42;101553.94;;;16.51;40.01
39435;BME280;66825;51.880;-0.518;2023-04-08T05:51:14;101544.38;;;16.48;39.96
39435;BME280;66825;51.880;-0.518;2023-04-08T05:53:42;101548.72;;;16.49;39.79
39435;BME280;66825;51.880;-0.518;2023-04-08T05:56:09;101546.78;;;16.40;39.87
39435;BME280;66825;51.880;-0.518;2023-04-08T05:58:34;101552.53;;;16.48;39.87
39435;BME280;66825;51.880;-0.518;2023-04-08T06:00:59;101559.88;;;16.48;39.94
39435;BME280;66825;51.880;-0.518;2023-04-08T06:03:25;101467.69;;;15.88;39.90
39435;BME280;66825;51.880;-0.518;2023-04-08T06:05:50;101568.06;;;16.48;39.91
39435;BME280;66825;51.880;-0.518;2023-04-08T06:08:16;101564.78;;;16.46;39.74
39435;BME280;66825;51.880;-0.518;2023-04-08T06:10:51;101572.13;;;16.45;39.93
39435;BME280;66825;51.880;-0.518;2023-04-08T06:13:16;101566.69;;;16.45;40.06
39435;BME280;66825;51.880;-0.518;2023-04-08T06:15:42;101565.03;;;16.44;39.77
39435;BME280;66825;51.880;-0.518;2023-04-08T06:18:07;101571.28;;;16.45;39.90
39435;BME280;66825;51.880;-0.518;2023-04-08T06:20:34;101574.28;;;16.43;40.05
39435;BME280;66825;51.880;-0.518;2023-04-08T06:23:00;101571.84;;;16.42;39.85
39435;BME280;66825;51.880;-0.518;2023-04-08T06:25:26;101570.75;;;16.43;39.65
39435;BME280;66825;51.880;-0.518;2023-04-08T06:27:51;101584.88;;;16.40;39.78
39435;BME280;66825;51.880;-0.518;2023-04-08T06:30:17;101581.88;;;16.41;39.85
39435;BME280;66825;51.880;-0.518;2023-04-08T06:32:42;101591.94;;;16.41;39.96
39435;BME280;66825;51.880;-0.518;2023-04-08T06:35:11;101591.94;;;16.41;39.57
39435;BME280;66825;51.880;-0.518;2023-04-08T06:37:36;101607.47;;;16.40;39.88
39435;BME280;66825;51.880;-0.518;2023-04-08T06:40:04;101599.53;;;16.39;39.88
39435;BME280;66825;51.880;-0.518;2023-04-08T06:42:29;101606.91;;;16.38;39.61
39435;BME280;66825;51.880;-0.518;2023-04-08T06:44:55;101601.16;;;16.34;39.94
39435;BME280;66825;51.880;-0.518;2023-04-08T06:47:20;101605.25;;;16.37;39.57
39435;BME280;66825;51.880;-0.518;2023-04-08T06:49:46;101607.19;;;16.37;39.57
39435;BME280;66825;51.880;-0.518;2023-04-08T06:52:11;101536.19;;;15.85;39.77
39435;BME280;66825;51.880;-0.518;2023-04-08T06:54:37;101620.78;;;16.37;39.73
39435;BME280;66825;51.880;-0.518;2023-04-08T06:57:02;101596.44;;;16.19;39.64
39435;BME280;66825;51.880;-0.518;2023-04-08T06:59:28;101621.00;;;16.35;39.69
39435;BME280;66825;51.880;-0.518;2023-04-08T07:01:54;101627.53;;;16.34;39.75
39435;BME280;66825;51.880;-0.518;2023-04-08T07:04:20;101620.47;;;16.33;39.55
39435;BME280;66825;51.880;-0.518;2023-04-08T07:06:45;101634.88;;;16.33;39.47
39435;BME280;66825;51.880;-0.518;2023-04-08T07:09:11;101617.47;;;16.29;39.50
39435;BME280;66825;51.880;-0.518;2023-04-08T07:11:36;101635.16;;;16.32;39.78
39435;BME280;66825;51.880;-0.518;2023-04-08T07:14:02;101625.34;;;16.31;39.67
39435;BME280;66825;51.880;-0.518;2023-04-08T07:16:27;101615.53;;;16.25;39.53
39435;BME280;66825;51.880;-0.518;2023-04-08T07:18:53;101625.34;;;16.31;39.77
39435;BME280;66825;51.880;-0.518;2023-04-08T07:21:18;101625.34;;;16.31;39.80
39435;BME280;66825;51.880;-0.518;2023-04-08T07:23:44;101608.94;;;16.15;39.66
39435;BME280;66825;51.880;-0.518;2023-04-08T07:26:09;101637.31;;;16.30;39.62
39435;BME280;66825;51.880;-0.518;2023-04-08T07:28:34;101634.59;;;16.30;39.63
39435;BME280;66825;51.880;-0.518;2023-04-08T07:31:13;101629.16;;;16.30;39.70
39435;BME280;66825;51.880;-0.518;2023-04-08T07:33:39;101621.75;;;16.20;39.51
39435;BME280;66825;51.880;-0.518;2023-04-08T07:36:05;101617.91;;;16.16;39.70
39435;BME280;66825;51.880;-0.518;2023-04-08T07:38:31;101638.38;;;16.29;39.89
39435;BME280;66825;51.880;-0.518;2023-04-08T07:40:56;101632.94;;;16.29;39.80
39435;BME280;66825;51.880;-0.518;2023-04-08T07:43:22;101634.88;;;16.28;39.87
39435;BME280;66825;51.880;-0.518;2023-04-08T07:45:47;101644.66;;;16.29;39.63
39435;BME280;66825;51.880;-0.518;2023-04-08T07:48:12;101649.25;;;16.29;39.77
39435;BME280;66825;51.880;-0.518;2023-04-08T07:50:38;101650.09;;;16.29;39.68
39435;BME280;66825;51.880;-0.518;2023-04-08T07:53:03;101658.25;;;16.29;39.70
39435;BME280;66825;51.880;-0.518;2023-04-08T07:55:35;101642.44;;;16.21;39.57
39435;BME280;66825;51.880;-0.518;2023-04-08T07:58:01;101653.91;;;16.28;39.72
39435;BME280;66825;51.880;-0.518;2023-04-08T08:00:26;101659.34;;;16.28;39.87
39435;BME280;66825;51.880;-0.518;2023-04-08T08:02:54;101659.34;;;16.28;39.83
39435;BME280;66825;51.880;-0.518;2023-04-08T08:05:20;101637.22;;;16.14;39.82
39435;BME280;66825;51.880;-0.518;2023-04-08T08:07:46;101615.66;;;16.02;39.60
39435;BME280;66825;51.880;-0.518;2023-04-08T08:10:11;101636.13;;;16.15;39.72
39435;BME280;66825;51.880;-0.518;2023-04-08T08:12:36;101660.16;;;16.29;39.79
39435;BME280;66825;51.880;-0.518;2023-04-08T08:15:02;101666.41;;;16.29;40.02
39435;BME280;66825;51.880;-0.518;2023-04-08T08:17:28;101669.38;;;16.28;39.96
39435;BME280;66825;51.880;-0.518;2023-04-08T08:19:55;101668.31;;;16.29;39.76
39435;BME280;66825;51.880;-0.518;2023-04-08T08:22:21;101674.56;;;16.29;39.86
39435;BME280;66825;51.880;-0.518;2023-04-08T08:24:47;101674.56;;;16.29;39.87
39435;BME280;66825;51.880;-0.518;2023-04-08T08:27:12;101674.56;;;16.29;39.85
39435;BME280;66825;51.880;-0.518;2023-04-08T08:29:38;101674.56;;;16.29;39.87
39435;BME280;66825;51.880;-0.518;2023-04-08T08:32:03;101680.00;;;16.29;39.79
39435;BME280;66825;51.880;-0.518;2023-04-08T08:34:29;101678.09;;;16.30;39.92
39435;BME280;66825;51.880;-0.518;2023-04-08T08:36:54;101675.38;;;16.30;39.83
39435;BME280;66825;51.880;-0.518;2023-04-08T08:39:21;101677.81;;;16.26;39.90
39435;BME280;66825;51.880;-0.518;2023-04-08T08:41:46;101678.91;;;16.30;39.69
39435;BME280;66825;51.880;-0.518;2023-04-08T08:44:12;101616.38;;;15.87;39.81
39435;BME280;66825;51.880;-0.518;2023-04-08T08:46:43;101680.81;;;16.30;39.80
39435;BME280;66825;51.880;-0.518;2023-04-08T08:49:10;101687.91;;;16.31;39.99
39435;BME280;66825;51.880;-0.518;2023-04-08T08:51:36;101666.91;;;16.21;39.70
39435;BME280;66825;51.880;-0.518;2023-04-08T08:54:02;101660.03;;;16.13;39.88
39435;BME280;66825;51.880;-0.518;2023-04-08T08:56:28;101680.31;;;16.33;39.68
39435;BME280;66825;51.880;-0.518;2023-04-08T08:58:54;101681.91;;;16.29;39.80
39435;BME280;66825;51.880;-0.518;2023-04-08T09:01:35;101684.09;;;16.32;39.61
39435;BME280;66825;51.880;-0.518;2023-04-08T09:04:14;101683.84;;;16.33;39.59
39435;BME280;66825;51.880;-0.518;2023-04-08T09:06:41;101680.31;;;16.33;39.63
39435;BME280;66825;51.880;-0.518;2023-04-08T09:09:08;101683.03;;;16.33;39.69
39435;BME280;66825;51.880;-0.518;2023-04-08T09:11:37;101683.03;;;16.33;39.58
39435;BME280;66825;51.880;-0.518;2023-04-08T09:14:04;101681.38;;;16.32;39.70
39435;BME280;66825;51.880;-0.518;2023-04-08T09:16:31;101680.31;;;16.33;39.95
39435;BME280;66825;51.880;-0.518;2023-04-08T09:19:07;101670.50;;;16.32;39.85
39435;BME280;66825;51.880;-0.518;2023-04-08T09:21:35;101681.13;;;16.33;39.72
39435;BME280;66825;51.880;-0.518;2023-04-08T09:24:00;101674.59;;;16.34;39.78
39435;BME280;66825;51.880;-0.518;2023-04-08T09:26:26;101680.03;;;16.34;39.97
39435;BME280;66825;51.880;-0.518;2023-04-08T09:29:02;101682.75;;;16.34;39.98
39435;BME280;66825;51.880;-0.518;2023-04-08T09:31:30;101677.81;;;16.26;39.95
39435;BME280;66825;51.880;-0.518;2023-04-08T09:33:57;101687.13;;;16.35;39.93
39435;BME280;66825;51.880;-0.518;2023-04-08T09:36:23;101691.72;;;16.35;39.79
39435;BME280;66825;51.880;-0.518;2023-04-08T09:38:53;101692.56;;;16.35;39.79
39435;BME280;66825;51.880;-0.518;2023-04-08T09:41:19;101660.09;;;16.18;39.79
39435;BME280;66825;51.880;-0.518;2023-04-08T09:43:50;101694.22;;;16.37;40.01
39435;BME280;66825;51.880;-0.518;2023-04-08T09:46:25;101687.94;;;16.36;39.80
39435;BME280;66825;51.880;-0.518;2023-04-08T09:49:05;101696.09;;;16.36;39.84
39435;BME280;66825;51.880;-0.518;2023-04-08T09:51:35;101602.66;;;15.77;39.67
39435;BME280;66825;51.880;-0.518;2023-04-08T09:54:11;101691.50;;;16.37;39.63
39435;BME280;66825;51.880;-0.518;2023-04-08T09:56:46;101692.28;;;16.37;39.76
39435;BME280;66825;51.880;-0.518;2023-04-08T09:59:14;101673.72;;;16.24;39.87
39435;BME280;66825;51.880;-0.518;2023-04-08T10:01:49;101670.44;;;16.22;40.05
39435;BME280;66825;51.880;-0.518;2023-04-08T10:04:19;101599.16;;;15.82;39.72
39435;BME280;66825;51.880;-0.518;2023-04-08T10:06:49;101690.38;;;16.38;39.82
39435;BME280;66825;51.880;-0.518;2023-04-08T10:09:20;101693.09;;;16.38;39.95
39435;BME280;66825;51.880;-0.518;2023-04-08T10:11:45;101691.22;;;16.38;39.68
39435;BME280;66825;51.880;-0.518;2023-04-08T10:14:11;101625.69;;;15.97;40.04
39435;BME280;66825;51.880;-0.518;2023-04-08T10:16:36;101696.66;;;16.38;39.73
39435;BME280;66825;51.880;-0.518;2023-04-08T10:19:35;101695.59;;;16.39;39.77
39435;BME280;66825;51.880;-0.518;2023-04-08T10:22:02;101697.22;;;16.40;39.82
39435;BME280;66825;51.880;-0.518;2023-04-08T10:24:28;101696.38;;;16.40;39.78
39435;BME280;66825;51.880;-0.518;2023-04-08T10:26:53;101699.94;;;16.40;39.83
39435;BME280;66825;51.880;-0.518;2023-04-08T10:31:47;101702.66;;;16.40;39.76
39435;BME280;66825;51.880;-0.518;2023-04-08T10:34:25;101698.03;;;16.41;39.82
39435;BME280;66825;51.880;-0.518;2023-04-08T10:36:52;101705.38;;;16.40;39.98
39435;BME280;66825;51.880;-0.518;2023-04-08T10:39:19;101698.03;;;16.41;40.09
39435;BME280;66825;51.880;-0.518;2023-04-08T10:41:47;101687.94;;;16.36;39.74
39435;BME280;66825;51.880;-0.518;2023-04-08T10:44:24;101686.56;;;16.33;39.94
39435;BME280;66825;51.880;-0.518;2023-04-08T10:46:51;101690.69;;;16.41;39.80
39435;BME280;66825;51.880;-0.518;2023-04-08T10:49:17;101691.25;;;16.43;39.89
39435;BME280;66825;51.880;-0.518;2023-04-08T10:51:43;101605.78;;;15.91;40.07
39435;BME280;66825;51.880;-0.518;2023-04-08T10:54:10;101687.72;;;16.43;39.76
39435;BME280;66825;51.880;-0.518;2023-04-08T10:56:46;101688.53;;;16.43;39.85
39435;BME280;66825;51.880;-0.518;2023-04-08T10:59:12;101689.38;;;16.44;39.74
39435;BME280;66825;51.880;-0.518;2023-04-08T11:01:41;101600.34;;;15.91;40.02
39435;BME280;66825;51.880;-0.518;2023-04-08T11:04:17;101685.53;;;16.45;40.04
39435;BME280;66825;51.880;-0.518;2023-04-08T11:06:44;101677.06;;;16.41;40.07
39435;BME280;66825;51.880;-0.518;2023-04-08T11:09:11;101653.06;;;16.28;40.14
39435;BME280;66825;51.880;-0.518;2023-04-08T11:11:37;101680.94;;;16.45;39.73
39435;BME280;66825;51.880;-0.518;2023-04-08T11:14:03;101648.19;;;16.30;40.00
39435;BME280;66825;51.880;-0.518;2023-04-08T11:16:30;101663.25;;;16.43;39.87
39435;BME280;66825;51.880;-0.518;2023-04-08T11:18:56;101661.88;;;16.45;39.78
39435;BME280;66825;51.880;-0.518;2023-04-08T11:21:23;101662.97;;;16.44;39.80
39435;BME280;66825;51.880;-0.518;2023-04-08T11:23:50;101662.97;;;16.44;39.66
39435;BME280;66825;51.880;-0.518;2023-04-08T11:26:17;101668.97;;;16.46;39.84
39435;BME280;66825;51.880;-0.518;2023-04-08T11:28:44;101669.78;;;16.47;39.93
39435;BME280;66825;51.880;-0.518;2023-04-08T11:31:11;101649.34;;;16.39;39.90
39435;BME280;66825;51.880;-0.518;2023-04-08T11:33:37;101665.97;;;16.48;39.72
39435;BME280;66825;51.880;-0.518;2023-04-08T11:36:11;101661.06;;;16.45;40.02
39435;BME280;66825;51.880;-0.518;2023-04-08T11:38:38;101663.25;;;16.48;39.75
39435;BME280;66825;51.880;-0.518;2023-04-08T11:41:05;101663.25;;;16.48;39.80
39435;BME280;66825;51.880;-0.518;2023-04-08T11:43:30;101661.34;;;16.48;40.03
39435;BME280;66825;51.880;-0.518;2023-04-08T11:45:55;101669.50;;;16.48;39.83
39435;BME280;66825;51.880;-0.518;2023-04-08T11:48:21;101664.06;;;16.48;39.84
39435;BME280;66825;51.880;-0.518;2023-04-08T11:51:01;101666.78;;;16.48;40.05
39435;BME280;66825;51.880;-0.518;2023-04-08T11:53:27;101659.47;;;16.49;40.05
39435;BME280;66825;51.880;-0.518;2023-04-08T11:55:53;101661.34;;;16.48;39.82
39435;BME280;66825;51.880;-0.518;2023-04-08T11:58:18;101661.63;;;16.47;39.93
39435;BME280;66825;51.880;-0.518;2023-04-08T12:00:44;101669.50;;;16.48;39.79
39435;BME280;66825;51.880;-0.518;2023-04-08T12:03:10;101669.25;;;16.50;39.81
39435;BME280;66825;51.880;-0.518;2023-04-08T12:05:35;101667.63;;;16.49;40.01
39435;BME280;66825;51.880;-0.518;2023-04-08T12:08:01;101658.63;;;16.48;39.89
39435;BME280;66825;51.880;-0.518;2023-04-08T12:10:27;101660.25;;;16.49;40.05
39435;BME280;66825;51.880;-0.518;2023-04-08T12:12:52;101573.75;;;15.93;40.17
39435;BME280;66825;51.880;-0.518;2023-04-08T12:15:18;101657.53;;;16.49;40.03
39435;BME280;66825;51.880;-0.518;2023-04-08T12:17:43;101651.31;;;16.49;39.83
39435;BME280;66825;51.880;-0.518;2023-04-08T12:20:10;101652.94;;;16.50;39.83
39435;BME280;66825;51.880;-0.518;2023-04-08T12:22:36;101649.38;;;16.49;39.81
39435;BME280;66825;51.880;-0.518;2023-04-08T12:25:02;101650.22;;;16.50;39.83
39435;BME280;66825;51.880;-0.518;2023-04-08T12:27:29;101642.06;;;16.50;39.89
39435;BME280;66825;51.880;-0.518;2023-04-08T12:29:58;101652.94;;;16.50;39.86
39435;BME280;66825;51.880;-0.518;2023-04-08T12:32:23;101640.69;;;16.47;39.75
39435;BME280;66825;51.880;-0.518;2023-04-08T12:34:50;101642.88;;;16.50;39.79
39435;BME280;66825;51.880;-0.518;2023-04-08T12:37:15;101647.22;;;16.51;39.83
39435;BME280;66825;51.880;-0.518;2023-04-08T12:39:41;101628.47;;;16.50;39.79
39435;BME280;66825;51.880;-0.518;2023-04-08T12:42:07;101634.47;;;16.52;39.97
39435;BME280;66825;51.880;-0.518;2023-04-08T12:44:32;101641.78;;;16.51;40.01
39435;BME280;66825;51.880;-0.518;2023-04-08T12:46:57;101641.78;;;16.51;40.09